Time;durP1;ratioP1;P1;durP2;ratioP2;P2;SDS_P1;SDS_P2;PMS_P1;PMS_P2;Temp;Humidity;BMP_temperature;BMP_pressure;BME280_temperature;BME280_humidity;BME280_pressure;Samples;Min_cycle;Max_cycle;Signal;HPM_P1;HPM_P2
2022/08/01 00:00:01;;;;;;;;;;;;;;;21.39;70.18;100864.88;4938153;28;121690;-82
2022/08/01 00:02:27;;;;;;;;;;;;;;;21.37;70.52;100865.41;4939853;28;124452;-82
2022/08/01 00:04:56;;;;;;;;;;;;;;;21.37;70.48;100873.78;4939287;28;121805;-81
2022/08/01 00:07:21;;;;;;;;;;;;;;;21.36;70.54;100869.47;4942142;28;122068;-83
2022/08/01 00:09:55;;;;;;;;;;;;;;;21.36;70.80;100866.69;4938954;28;122150;-82
2022/08/01 00:12:21;;;;;;;;;;;;;;;21.33;70.63;100867.72;4921496;28;121398;-83
2022/08/01 00:14:46;;;;;;;;;;;;;;;21.33;70.86;100861.41;4931602;28;122950;-83
2022/08/01 00:17:12;;;;;;;;;;;;;;;21.32;70.96;100871.81;4951002;28;122371;-83
2022/08/01 00:19:55;;;;;;;;;;;;;;;21.33;70.83;100867.72;4950817;28;121324;-83
2022/08/01 00:22:21;;;;;;;;;;;;;;;21.33;70.74;100862.16;4946633;28;121873;-83
2022/08/01 00:24:46;;;;;;;;;;;;;;;21.33;70.94;100867.72;4946080;28;121659;-82
2022/08/01 00:27:12;;;;;;;;;;;;;;;21.33;71.04;100864.94;4930738;28;121451;-82
2022/08/01 00:29:37;;;;;;;;;;;;;;;21.34;71.04;100860.88;4920625;28;122368;-83
2022/08/01 00:32:03;;;;;;;;;;;;;;;21.34;71.09;100863.66;4949026;28;121517;-82
2022/08/01 00:34:29;;;;;;;;;;;;;;;21.34;70.75;100858.09;4953974;28;121792;-82
2022/08/01 00:36:54;;;;;;;;;;;;;;;21.34;70.81;100863.66;4932470;28;121674;-82
2022/08/01 00:39:20;;;;;;;;;;;;;;;21.34;71.02;100862.91;4949794;28;121328;-83
2022/08/01 00:41:45;;;;;;;;;;;;;;;21.34;70.94;100866.47;4949573;28;122061;-83
2022/08/01 00:44:11;;;;;;;;;;;;;;;21.35;71.12;100862.38;4945024;28;121456;-83
2022/08/01 00:46:36;;;;;;;;;;;;;;;21.34;70.83;100860.88;4938556;28;121800;-82
2022/08/01 00:49:04;;;;;;;;;;;;;;;21.35;71.25;100867.97;4943895;28;124960;-83
2022/08/01 00:51:30;;;;;;;;;;;;;;;21.36;70.99;100865.94;4935959;28;121793;-83
2022/08/01 00:53:55;;;;;;;;;;;;;;;21.35;70.65;100861.63;4935321;28;121445;-82
2022/08/01 00:56:23;;;;;;;;;;;;;;;21.35;70.62;100861.63;4928268;28;122291;-83
2022/08/01 00:58:49;;;;;;;;;;;;;;;21.35;71.03;100853.25;4931609;28;121470;-83
2022/08/01 01:01:14;;;;;;;;;;;;;;;21.33;71.10;100862.16;4924494;28;124452;-83
2022/08/01 01:03:40;;;;;;;;;;;;;;;21.33;71.14;100858.59;4938644;28;121817;-83
2022/08/01 01:06:14;;;;;;;;;;;;;;;21.34;70.44;100862.91;4918354;28;121728;-84
2022/08/01 01:08:54;;;;;;;;;;;;;;;21.34;70.73;100860.13;4928331;28;125303;-83
2022/08/01 01:11:25;;;;;;;;;;;;;;;21.34;70.84;100860.88;4912422;28;121653;-82
2022/08/01 01:13:53;;;;;;;;;;;;;;;21.32;70.97;100855.06;4942734;28;121401;-83
2022/08/01 01:16:20;;;;;;;;;;;;;;;21.32;71.01;100863.44;4925463;28;122871;-83
2022/08/01 01:18:55;;;;;;;;;;;;;;;21.32;71.00;100859.88;4942796;28;122026;-83
2022/08/01 01:21:53;;;;;;;;;;;;;;;21.32;70.83;100859.88;4938995;28;125661;-83
2022/08/01 01:24:29;;;;;;;;;;;;;;;21.31;71.25;100864.72;4914938;28;121802;-82
2022/08/01 01:27:03;;;;;;;;;;;;;;;21.31;71.23;100859.13;4913190;28;124158;-83
2022/08/01 01:29:35;;;;;;;;;;;;;;;21.31;71.06;100861.16;4913276;28;125065;-83
2022/08/01 01:32:04;;;;;;;;;;;;;;;21.32;71.45;100860.66;4930188;28;121683;-83
2022/08/01 01:34:31;;;;;;;;;;;;;;;21.33;71.27;100866.97;4940985;28;121551;-83
2022/08/01 01:36:58;;;;;;;;;;;;;;;21.33;70.87;100867.72;4928992;28;125176;-82
2022/08/01 01:39:26;;;;;;;;;;;;;;;21.34;71.10;100866.47;4944140;28;121877;-83
2022/08/01 01:41:53;;;;;;;;;;;;;;;21.33;70.95;100867.72;4929338;28;124783;-82
2022/08/01 01:44:18;;;;;;;;;;;;;;;21.34;71.30;100868.50;4948967;28;121928;-83
2022/08/01 01:46:45;;;;;;;;;;;;;;;21.32;71.22;100866.22;4945236;28;121492;-81
2022/08/01 01:49:11;;;;;;;;;;;;;;;21.32;70.91;100874.59;4936700;28;125479;-82
2022/08/01 01:51:38;;;;;;;;;;;;;;;21.33;70.97;100873.31;4940093;28;121757;-82
2022/08/01 01:54:04;;;;;;;;;;;;;;;21.34;71.40;100877.63;4940968;28;121763;-82
2022/08/01 01:56:30;;;;;;;;;;;;;;;21.34;71.14;100877.63;4945856;28;121844;-82
2022/08/01 01:58:57;;;;;;;;;;;;;;;21.32;71.29;100877.38;4945066;28;122816;-82
2022/08/01 02:01:25;;;;;;;;;;;;;;;21.34;70.91;100882.44;4953663;28;121552;-82
2022/08/01 02:03:57;;;;;;;;;;;;;;;21.33;71.45;100881.69;4946076;28;121832;-83
2022/08/01 02:06:23;;;;;;;;;;;;;;;21.33;71.55;100884.47;4929339;28;124027;-81
2022/08/01 02:08:49;;;;;;;;;;;;;;;21.33;71.08;100878.13;4943627;28;125218;-83
2022/08/01 02:11:21;;;;;;;;;;;;;;;21.31;71.43;100880.69;4932342;28;121556;-84
2022/08/01 02:13:49;;;;;;;;;;;;;;;21.28;71.43;100876.88;4912968;28;121465;-83
2022/08/01 02:16:16;;;;;;;;;;;;;;;21.27;71.59;100874.63;4942481;28;122396;-83
2022/08/01 02:18:42;;;;;;;;;;;;;;;21.25;71.46;100885.53;4934587;28;121993;-82
2022/08/01 02:21:09;;;;;;;;;;;;;;;21.23;71.82;100874.88;4929553;28;121897;-83
2022/08/01 02:23:40;;;;;;;;;;;;;;;21.23;71.78;100883.25;4931540;28;125022;-82
2022/08/01 02:26:09;;;;;;;;;;;;;;;21.21;71.81;100869.06;4941581;28;121931;-83
2022/08/01 02:28:38;;;;;;;;;;;;;;;21.22;71.58;100872.63;4923892;28;124842;-83
2022/08/01 02:31:09;;;;;;;;;;;;;;;21.22;71.89;100870.56;4929485;28;122000;-82
2022/08/01 02:33:39;;;;;;;;;;;;;;;21.23;71.75;100876.91;4929404;28;121567;-82
2022/08/01 02:36:05;;;;;;;;;;;;;;;21.23;71.67;100871.34;4926461;28;124896;-83
2022/08/01 02:38:33;;;;;;;;;;;;;;;21.21;71.39;100871.09;4942933;28;121662;-83
2022/08/01 02:41:02;;;;;;;;;;;;;;;21.19;71.20;100871.63;4947179;28;122738;-83
2022/08/01 02:43:30;;;;;;;;;;;;;;;21.18;71.74;100872.91;4946999;28;121884;-82
2022/08/01 02:45:57;;;;;;;;;;;;;;;21.19;71.82;100873.66;4933813;28;121528;-83
2022/08/01 02:48:25;;;;;;;;;;;;;;;21.21;71.62;100879.47;4929393;28;121857;-82
2022/08/01 02:50:52;;;;;;;;;;;;;;;21.22;71.69;100884.53;4929648;28;121685;-83
2022/08/01 02:53:19;;;;;;;;;;;;;;;21.23;71.80;100883.25;4954923;28;124831;-82
2022/08/01 02:55:47;;;;;;;;;;;;;;;21.25;71.78;100893.91;4946677;28;125282;-83
2022/08/01 02:58:15;;;;;;;;;;;;;;;21.25;71.95;100896.72;4949288;28;121992;-83
2022/08/01 03:00:42;;;;;;;;;;;;;;;21.25;71.55;100894.66;4936900;28;121720;-82
2022/08/01 03:03:07;;;;;;;;;;;;;;;21.23;71.65;100897.19;4928897;28;125349;-82
2022/08/01 03:05:34;;;;;;;;;;;;;;;21.24;71.27;100895.94;4921044;28;121706;-83
2022/08/01 03:08:00;;;;;;;;;;;;;;;21.23;71.30;100899.22;4945681;28;122454;-83
2022/08/01 03:10:27;;;;;;;;;;;;;;;21.22;71.77;100895.69;4932098;28;121555;-82
2022/08/01 03:12:53;;;;;;;;;;;;;;;21.22;71.81;100901.25;4963236;28;122137;-82
2022/08/01 03:15:20;;;;;;;;;;;;;;;21.22;71.68;100901.25;4945160;28;125416;-83
2022/08/01 03:17:46;;;;;;;;;;;;;;;21.21;71.47;100905.34;4931643;28;121782;-82
2022/08/01 03:20:13;;;;;;;;;;;;;;;21.21;71.83;100902.53;4944030;28;124738;-83
2022/08/01 03:22:40;;;;;;;;;;;;;;;21.19;71.30;100907.88;4931089;28;124907;-83
2022/08/01 03:25:06;;;;;;;;;;;;;;;21.20;71.45;100908.66;4947254;28;121761;-83
2022/08/01 03:27:32;;;;;;;;;;;;;;;21.20;71.64;100914.22;4949167;28;121477;-83
2022/08/01 03:29:58;;;;;;;;;;;;;;;21.19;71.04;100918.28;4931089;28;122535;-83
2022/08/01 03:32:25;;;;;;;;;;;;;;;21.15;71.27;100926.94;4924666;28;121657;-82
2022/08/01 03:34:51;;;;;;;;;;;;;;;21.12;71.10;100936.34;4911670;28;124944;-83
2022/08/01 03:37:24;;;;;;;;;;;;;;;21.10;71.65;100927.75;4913111;28;121903;-83
2022/08/01 03:40:01;;;;;;;;;;;;;;;21.09;71.40;100926.22;4950709;28;123763;-83
2022/08/01 03:42:47;;;;;;;;;;;;;;;21.07;71.48;100926.75;4946249;28;125301;-82
2022/08/01 03:45:23;;;;;;;;;;;;;;;21.07;71.71;100923.97;4931380;28;121812;-82
2022/08/01 03:47:52;;;;;;;;;;;;;;;21.07;71.60;100935.13;4948869;28;121636;-83
2022/08/01 03:50:20;;;;;;;;;;;;;;;21.03;71.42;100939.44;4955334;28;122341;-83
2022/08/01 03:52:46;;;;;;;;;;;;;;;21.00;71.49;100938.44;4948388;28;121469;-83
2022/08/01 03:55:13;;;;;;;;;;;;;;;20.95;71.32;100944.81;4945988;28;121605;-81
2022/08/01 03:57:40;;;;;;;;;;;;;;;20.91;71.29;100935.22;4932710;28;121192;-82
2022/08/01 04:00:09;;;;;;;;;;;;;;;20.88;71.55;100950.94;4949694;28;121028;-83
2022/08/01 04:02:41;;;;;;;;;;;;;;;20.84;70.83;100951.22;4946785;28;121441;-82
2022/08/01 04:05:07;;;;;;;;;;;;;;;20.78;71.24;100958.84;4940412;28;121519;-81
2022/08/01 04:07:36;;;;;;;;;;;;;;;20.74;70.95;100963.19;4941100;28;121298;-82
2022/08/01 04:10:05;;;;;;;;;;;;;;;20.69;70.96;100956.38;4951292;28;121789;-83
2022/08/01 04:12:32;;;;;;;;;;;;;;;20.65;70.83;100963.50;4935556;28;121299;-82
2022/08/01 04:14:58;;;;;;;;;;;;;;;20.56;70.44;100958.94;4947166;28;124645;-81
2022/08/01 04:17:24;;;;;;;;;;;;;;;20.47;70.77;100967.59;4953951;28;120992;-82
2022/08/01 04:19:50;;;;;;;;;;;;;;;20.42;70.65;100965.59;4931063;28;122443;-83
2022/08/01 04:22:15;;;;;;;;;;;;;;;20.38;70.57;100970.66;4932824;28;120937;-82
2022/08/01 04:24:42;;;;;;;;;;;;;;;20.37;70.74;100980.28;4931428;28;120545;-83
2022/08/01 04:27:15;;;;;;;;;;;;;;;20.31;70.80;100979.53;4931120;28;122639;-82
2022/08/01 04:30:00;;;;;;;;;;;;;;;20.27;70.78;100990.94;4916001;28;123584;-82
2022/08/01 04:32:27;;;;;;;;;;;;;;;20.23;70.67;101005.13;4931963;28;120325;-82
2022/08/01 04:34:55;;;;;;;;;;;;;;;20.18;70.36;101005.16;4935388;28;122125;-81
2022/08/01 04:37:22;;;;;;;;;;;;;;;20.11;70.39;101000.06;4933231;28;120235;-82
2022/08/01 04:39:48;;;;;;;;;;;;;;;20.06;70.26;101004.41;4952013;28;120381;-83
2022/08/01 04:42:15;;;;;;;;;;;;;;;19.98;70.14;101011.75;4951885;28;120802;-81
2022/08/01 04:44:41;;;;;;;;;;;;;;;19.89;70.14;101004.44;4951695;28;120107;-82
2022/08/01 04:47:07;;;;;;;;;;;;;;;19.86;69.96;101013.00;4937183;28;122372;-82
2022/08/01 04:49:33;;;;;;;;;;;;;;;19.81;70.19;101019.34;4914367;28;123840;-82
2022/08/01 04:52:00;;;;;;;;;;;;;;;19.74;70.04;101022.66;4932966;28;120135;-81
2022/08/01 04:54:26;;;;;;;;;;;;;;;19.70;69.61;101024.94;4945058;28;120001;-82
2022/08/01 04:56:53;;;;;;;;;;;;;;;19.69;69.44;101021.38;4954496;28;120534;-81
2022/08/01 05:02:03;;;;;;;;;;;;;;;19.65;68.37;101022.91;4948179;28;123386;-82
2022/08/01 05:04:29;;;;;;;;;;;;;;;19.60;68.19;101036.28;4932999;28;120195;-82
2022/08/01 05:06:54;;;;;;;;;;;;;;;19.55;67.95;101034.28;4948482;28;120445;-81
2022/08/01 05:09:20;;;;;;;;;;;;;;;19.51;67.44;101046.88;4946668;28;120413;-82
2022/08/01 05:11:45;;;;;;;;;;;;;;;19.46;67.14;101040.06;4963095;28;119750;-82
2022/08/01 05:14:11;;;;;;;;;;;;;;;19.44;67.28;101042.59;4914783;28;120692;-81
2022/08/01 05:16:36;;;;;;;;;;;;;;;19.38;66.57;101041.78;4931446;28;120487;-83
2022/08/01 05:19:02;;;;;;;;;;;;;;;19.36;67.00;101046.34;4935724;28;121272;-81
2022/08/01 05:21:27;;;;;;;;;;;;;;;19.34;66.89;101052.41;4966144;28;123072;-82
2022/08/01 05:23:58;;;;;;;;;;;;;;;19.34;66.52;101046.84;4940351;28;119808;-82
2022/08/01 05:26:29;;;;;;;;;;;;;;;19.28;66.38;101055.19;4947324;28;121999;-82
2022/08/01 05:28:55;;;;;;;;;;;;;;;19.32;66.40;101057.72;4955429;28;124291;-81
2022/08/01 05:31:20;;;;;;;;;;;;;;;19.40;66.81;101063.53;4952196;28;119783;-81
2022/08/01 05:33:46;;;;;;;;;;;;;;;19.48;67.10;101076.47;4949124;28;120121;-81
2022/08/01 05:36:11;;;;;;;;;;;;;;;19.51;66.71;101078.25;4930038;28;123571;-81
2022/08/01 05:39:00;;;;;;;;;;;;;;;19.47;65.51;101086.09;4931618;28;119804;-82
2022/08/01 05:41:26;;;;;;;;;;;;;;;19.42;65.80;101092.41;4952230;28;119913;-82
2022/08/01 05:43:51;;;;;;;;;;;;;;;19.40;65.87;101086.59;4942119;28;121697;-82
2022/08/01 05:46:17;;;;;;;;;;;;;;;19.45;66.34;101096.19;4947457;28;120976;-82
2022/08/01 05:48:42;;;;;;;;;;;;;;;19.45;65.92;101094.19;4940245;28;120524;-82
2022/08/01 05:51:08;;;;;;;;;;;;;;;19.41;65.52;101087.34;4950182;28;119860;-82
2022/08/01 05:53:34;;;;;;;;;;;;;;;19.43;65.86;101102.28;4945791;28;120132;-82
2022/08/01 05:56:00;;;;;;;;;;;;;;;19.50;65.61;101104.56;4928672;28;122839;-82
2022/08/01 05:58:25;;;;;;;;;;;;;;;19.56;65.18;101102.56;4943268;28;121030;-81
2022/08/01 06:00:51;;;;;;;;;;;;;;;19.59;64.96;101112.69;4919834;28;122139;-81
2022/08/01 06:03:18;;;;;;;;;;;;;;;19.59;64.57;101114.72;4947647;28;120400;-82
2022/08/01 06:05:44;;;;;;;;;;;;;;;19.55;64.55;101111.41;4937508;28;120162;-82
2022/08/01 06:08:20;;;;;;;;;;;;;;;19.49;64.43;101103.03;4919909;28;123179;-81
2022/08/01 06:10:45;;;;;;;;;;;;;;;19.47;65.08;101102.78;4946783;28;121129;-82
2022/08/01 06:13:11;;;;;;;;;;;;;;;19.48;64.52;101106.31;4942737;28;120455;-82
2022/08/01 06:15:36;;;;;;;;;;;;;;;19.48;64.53;101109.88;4941027;28;120213;-82
2022/08/01 06:18:02;;;;;;;;;;;;;;;19.51;64.53;101106.06;4945545;28;119995;-81
2022/08/01 06:20:27;;;;;;;;;;;;;;;19.57;64.51;101103.31;4946457;28;123307;-81
2022/08/01 06:22:54;;;;;;;;;;;;;;;19.60;64.48;101103.06;4942589;28;120191;-82
2022/08/01 06:25:19;;;;;;;;;;;;;;;19.59;64.49;101121.03;4942085;28;122275;-81
2022/08/01 06:27:45;;;;;;;;;;;;;;;19.59;64.04;101114.72;4927062;28;120044;-81
2022/08/01 06:30:10;;;;;;;;;;;;;;;19.60;64.11;101114.19;4941356;28;119930;-82
2022/08/01 06:32:36;;;;;;;;;;;;;;;19.67;64.61;101126.13;4943038;28;121370;-81
2022/08/01 06:35:02;;;;;;;;;;;;;;;19.72;64.03;101128.16;4937996;28;120542;-81
2022/08/01 06:37:31;;;;;;;;;;;;;;;19.78;64.35;101131.69;4948385;28;119995;-81
2022/08/01 06:40:06;;;;;;;;;;;;;;;19.90;63.76;101133.25;4941881;28;119801;-81
2022/08/01 06:42:36;;;;;;;;;;;;;;;20.01;63.94;101129.72;4932860;28;121298;-81
2022/08/01 06:45:06;;;;;;;;;;;;;;;20.08;63.66;101138.31;4930237;28;122375;-81
2022/08/01 06:47:31;;;;;;;;;;;;;;;20.08;63.27;101134.75;4935923;28;121892;-82
2022/08/01 06:49:57;;;;;;;;;;;;;;;20.10;62.84;101146.91;4925841;28;119808;-81
2022/08/01 06:52:22;;;;;;;;;;;;;;;20.15;62.54;101143.41;4938707;28;121695;-82
2022/08/01 06:54:48;;;;;;;;;;;;;;;20.19;62.13;101146.69;4939415;28;121780;-82
2022/08/01 06:57:13;;;;;;;;;;;;;;;20.19;61.87;101155.03;4940983;28;120007;-82
2022/08/01 06:59:39;;;;;;;;;;;;;;;20.14;61.63;101152.25;4922082;28;121718;-82
2022/08/01 07:02:04;;;;;;;;;;;;;;;20.06;61.40;101156.78;4939342;28;120579;-81
2022/08/01 07:04:30;;;;;;;;;;;;;;;19.94;61.15;101158.81;4941704;28;120152;-82
2022/08/01 07:06:56;;;;;;;;;;;;;;;19.81;60.88;101166.88;4947566;28;119720;-82
2022/08/01 07:09:22;;;;;;;;;;;;;;;19.69;60.41;101168.13;4940324;28;119803;-82
2022/08/01 07:11:47;;;;;;;;;;;;;;;19.63;60.25;101163.28;4929209;28;120070;-81
2022/08/01 07:14:13;;;;;;;;;;;;;;;19.57;60.26;101159.72;4946707;28;120679;-81
2022/08/01 07:16:38;;;;;;;;;;;;;;;19.62;60.60;101172.91;4948301;28;120237;-82
2022/08/01 07:19:04;;;;;;;;;;;;;;;19.74;61.25;101159.03;4935048;28;122555;-81
2022/08/01 07:21:29;;;;;;;;;;;;;;;19.96;61.35;101163.88;4944078;28;123994;-82
2022/08/01 07:23:55;;;;;;;;;;;;;;;20.14;60.81;101175.28;4931147;28;119963;-82
2022/08/01 07:26:20;;;;;;;;;;;;;;;20.23;59.93;101174.28;4915970;28;122020;-82
2022/08/01 07:28:46;;;;;;;;;;;;;;;20.24;59.91;101173.00;4951007;28;119996;-82
2022/08/01 07:31:11;;;;;;;;;;;;;;;20.16;57.61;101177.56;4941393;28;121638;-81
2022/08/01 07:33:37;;;;;;;;;;;;;;;20.05;57.82;101171.97;4944519;28;120198;-82
2022/08/01 07:36:03;;;;;;;;;;;;;;;19.99;57.90;101177.53;4947866;28;120220;-82
2022/08/01 07:38:32;;;;;;;;;;;;;;;19.98;58.25;101178.06;4917436;28;121903;-82
2022/08/01 07:40:59;;;;;;;;;;;;;;;19.97;58.22;101170.97;4944103;28;122981;-82
2022/08/01 07:43:28;;;;;;;;;;;;;;;19.97;58.60;101177.28;4931590;28;120213;-81
2022/08/01 07:45:53;;;;;;;;;;;;;;;19.98;58.79;101189.94;4934714;28;119723;-83
2022/08/01 07:48:20;;;;;;;;;;;;;;;19.99;58.06;101185.13;4943402;28;121302;-81
2022/08/01 07:50:45;;;;;;;;;;;;;;;20.06;58.09;101185.41;4937463;28;119654;-82
2022/08/01 07:53:14;;;;;;;;;;;;;;;20.16;58.13;101189.47;4955494;28;123052;-81
2022/08/01 07:55:40;;;;;;;;;;;;;;;20.32;58.20;101190.72;4946825;28;119809;-81
2022/08/01 07:58:05;;;;;;;;;;;;;;;20.53;58.22;101194.06;4934540;28;119973;-82
2022/08/01 08:00:31;;;;;;;;;;;;;;;20.66;57.13;101199.88;4948488;28;121337;-82
2022/08/01 08:02:58;;;;;;;;;;;;;;;20.68;56.07;101200.13;4930550;28;120475;-82
2022/08/01 08:05:24;;;;;;;;;;;;;;;20.70;56.14;101192.03;4942193;28;122317;-82
2022/08/01 08:07:52;;;;;;;;;;;;;;;20.80;55.36;101209.22;4942293;28;122962;-81
2022/08/01 08:10:18;;;;;;;;;;;;;;;20.92;55.63;101205.16;4967798;28;121493;-82
2022/08/01 08:12:45;;;;;;;;;;;;;;;21.08;55.08;101212.75;4928301;28;123148;-81
2022/08/01 08:15:11;;;;;;;;;;;;;;;21.22;55.12;101208.13;4948559;28;120063;-82
2022/08/01 08:17:37;;;;;;;;;;;;;;;21.36;54.39;101207.09;4935618;28;121444;-82
2022/08/01 08:20:03;;;;;;;;;;;;;;;21.49;53.62;101198.16;4968625;28;123383;-81
2022/08/01 08:22:29;;;;;;;;;;;;;;;21.56;52.30;101196.88;4934289;28;120399;-82
2022/08/01 08:24:54;;;;;;;;;;;;;;;21.65;51.66;101199.38;4947139;28;122349;-82
2022/08/01 08:27:20;;;;;;;;;;;;;;;21.74;51.76;101207.44;4963702;28;124307;-82
2022/08/01 08:29:45;;;;;;;;;;;;;;;21.88;51.50;101206.34;4948551;28;120195;-82
2022/08/01 08:32:11;;;;;;;;;;;;;;;21.96;51.49;101210.09;4952356;28;122073;-82
2022/08/01 08:34:36;;;;;;;;;;;;;;;22.03;51.04;101219.97;4950375;28;121080;-82
2022/08/01 08:37:02;;;;;;;;;;;;;;;22.12;50.59;101224.50;4964249;28;122628;-82
2022/08/01 08:39:29;;;;;;;;;;;;;;;22.22;50.68;101220.13;4949031;28;124596;-82
2022/08/01 08:41:56;;;;;;;;;;;;;;;22.31;49.52;101226.16;4965044;28;120587;-82
2022/08/01 08:44:21;;;;;;;;;;;;;;;22.42;49.43;101230.13;4949813;28;120607;-82
2022/08/01 08:47:05;;;;;;;;;;;;;;;22.55;49.77;101231.06;4948542;28;121578;-82
2022/08/01 08:49:31;;;;;;;;;;;;;;;22.70;49.68;101230.66;4946833;28;121306;-82
2022/08/01 08:51:58;;;;;;;;;;;;;;;22.85;49.55;101238.69;4947419;28;121309;-82
2022/08/01 08:54:24;;;;;;;;;;;;;;;22.91;48.84;101236.59;4950217;28;121698;-82
2022/08/01 08:56:51;;;;;;;;;;;;;;;23.00;49.10;101230.66;4946325;28;123030;-81
2022/08/01 08:59:17;;;;;;;;;;;;;;;23.13;49.76;101230.00;4977261;28;124843;-82
2022/08/01 09:01:42;;;;;;;;;;;;;;;23.22;49.24;101244.44;4966402;28;121335;-82
2022/08/01 09:04:08;;;;;;;;;;;;;;;23.28;49.17;101244.34;4953427;28;121189;-81
2022/08/01 09:06:34;;;;;;;;;;;;;;;23.38;47.67;101242.72;4948261;28;124377;-82
2022/08/01 09:09:00;;;;;;;;;;;;;;;23.45;47.42;101244.19;4966748;28;121633;-82
2022/08/01 09:11:25;;;;;;;;;;;;;;;23.46;47.37;101245.69;4947442;28;123194;-82
2022/08/01 09:14:01;;;;;;;;;;;;;;;23.45;47.33;101244.94;4952972;28;124383;-82
2022/08/01 09:16:26;;;;;;;;;;;;;;;23.46;47.82;101254.09;4933260;28;122018;-82
2022/08/01 09:18:52;;;;;;;;;;;;;;;23.54;47.63;101243.78;4946499;28;122363;-83
2022/08/01 09:21:19;;;;;;;;;;;;;;;23.56;47.20;101246.84;4947039;28;121568;-81
2022/08/01 09:23:46;;;;;;;;;;;;;;;23.51;47.03;101244.84;4945218;28;122445;-82
2022/08/01 09:26:12;;;;;;;;;;;;;;;23.55;47.44;101254.47;4943624;28;122311;-82
2022/08/01 09:28:38;;;;;;;;;;;;;;;23.58;47.32;101242.25;4946289;28;122084;-82
2022/08/01 09:31:08;;;;;;;;;;;;;;;23.67;47.18;101255.13;4962593;28;124435;-82
2022/08/01 09:33:57;;;;;;;;;;;;;;;23.68;46.87;101256.66;4941337;28;125279;-82
2022/08/01 09:36:24;;;;;;;;;;;;;;;23.56;46.81;101260.84;4958321;28;121581;-82
2022/08/01 09:38:51;;;;;;;;;;;;;;;23.46;47.16;101263.25;4949822;28;121459;-82
2022/08/01 09:41:17;;;;;;;;;;;;;;;23.45;46.53;101266.56;4944695;28;121725;-82
2022/08/01 09:43:50;;;;;;;;;;;;;;;23.43;45.63;101269.16;4930485;28;123813;-82
2022/08/01 09:46:15;;;;;;;;;;;;;;;23.40;46.63;101259.72;4943513;28;122007;-82
2022/08/01 09:48:57;;;;;;;;;;;;;;;23.39;45.64;101263.06;4922654;28;121527;-81
2022/08/01 09:51:33;;;;;;;;;;;;;;;23.38;45.63;101270.69;4943997;28;121468;-82
2022/08/01 09:53:59;;;;;;;;;;;;;;;23.38;45.64;101272.75;4942832;28;122138;-83
2022/08/01 09:56:24;;;;;;;;;;;;;;;23.31;45.71;101284.53;4961395;28;121626;-82
2022/08/01 09:58:50;;;;;;;;;;;;;;;23.31;46.15;101271.28;4948241;28;124492;-82
2022/08/01 10:01:15;;;;;;;;;;;;;;;23.35;45.93;101274.56;4945505;28;123085;-82
2022/08/01 10:03:41;;;;;;;;;;;;;;;23.44;46.09;101268.63;4945363;28;121815;-82
2022/08/01 10:06:19;;;;;;;;;;;;;;;23.49;46.24;101276.19;4945924;28;122256;-82
2022/08/01 10:08:45;;;;;;;;;;;;;;;23.50;45.19;101274.91;4945806;28;122375;-82
2022/08/01 10:11:11;;;;;;;;;;;;;;;23.44;45.13;101279.06;4927920;28;123468;-81
2022/08/01 10:13:37;;;;;;;;;;;;;;;23.43;44.42;101280.34;4944130;28;121878;-82
2022/08/01 10:16:04;;;;;;;;;;;;;;;23.49;44.58;101273.38;4945160;28;121964;-82
2022/08/01 10:18:31;;;;;;;;;;;;;;;23.52;45.23;101272.31;4952516;28;122174;-83
2022/08/01 10:20:57;;;;;;;;;;;;;;;23.55;44.00;101271.28;4969195;28;121988;-81
2022/08/01 10:23:24;;;;;;;;;;;;;;;23.56;44.61;101277.66;4947947;28;123992;-82
2022/08/01 10:25:50;;;;;;;;;;;;;;;23.52;42.99;101277.16;4964752;28;122535;-82
2022/08/01 10:28:17;;;;;;;;;;;;;;;23.42;43.91;101278.81;4946394;28;122106;-82
2022/08/01 10:30:43;;;;;;;;;;;;;;;23.36;44.16;101276.06;4945907;28;121566;-82
2022/08/01 10:33:10;;;;;;;;;;;;;;;23.37;43.53;101274.78;4961230;28;124421;-82
2022/08/01 10:35:36;;;;;;;;;;;;;;;23.40;44.18;101275.78;4942823;28;121758;-83
2022/08/01 10:38:03;;;;;;;;;;;;;;;23.43;44.04;101274.75;4961266;28;123442;-82
2022/08/01 10:40:29;;;;;;;;;;;;;;;23.44;44.22;101276.25;4946818;28;124622;-82
2022/08/01 10:42:55;;;;;;;;;;;;;;;23.42;44.41;101281.59;4948516;28;122477;-82
2022/08/01 10:45:26;;;;;;;;;;;;;;;23.42;44.10;101278.81;4974804;28;125195;-82
2022/08/01 10:48:09;;;;;;;;;;;;;;;23.40;43.58;101279.31;4970815;28;121552;-82
2022/08/01 10:50:48;;;;;;;;;;;;;;;23.37;43.14;101276.81;4961355;28;121996;-82
2022/08/01 10:53:32;;;;;;;;;;;;;;;23.39;43.85;101274.25;4954869;28;121832;-82
2022/08/01 10:55:59;;;;;;;;;;;;;;;23.42;44.29;101285.19;4950124;28;121781;-82
2022/08/01 10:58:24;;;;;;;;;;;;;;;23.44;43.74;101284.66;4952251;28;122673;-82
2022/08/01 11:01:09;;;;;;;;;;;;;;;23.36;43.67;101290.06;4968235;28;124524;-82
2022/08/01 11:03:41;;;;;;;;;;;;;;;23.36;44.53;101275.31;4948867;28;121676;-82
2022/08/01 11:06:15;;;;;;;;;;;;;;;23.32;44.39;101286.03;4953536;28;123826;-82
2022/08/01 11:08:42;;;;;;;;;;;;;;;23.35;44.73;101291.34;4951050;28;121412;-82
2022/08/01 11:11:10;;;;;;;;;;;;;;;23.36;45.14;101284.47;4965488;28;122915;-82
2022/08/01 11:14:06;;;;;;;;;;;;;;;23.38;44.81;101290.28;4971771;28;124665;-83
2022/08/01 11:16:33;;;;;;;;;;;;;;;23.40;45.24;101275.78;4918362;28;122152;-82
2022/08/01 11:18:58;;;;;;;;;;;;;;;23.45;45.21;101292.53;4956568;28;124925;-82
2022/08/01 11:22:00;;;;;;;;;;;;;;;23.50;45.26;101293.75;4951533;28;122039;-82
2022/08/01 11:24:44;;;;;;;;;;;;;;;23.53;44.33;101295.47;4885641;28;122120;-82
2022/08/01 11:27:20;;;;;;;;;;;;;;;23.52;44.43;101294.72;4947339;28;123234;-81
2022/08/01 11:30:05;;;;;;;;;;;;;;;23.50;44.15;101291.69;4954688;28;122344;-82
2022/08/01 11:32:46;;;;;;;;;;;;;;;23.54;44.50;101292.16;4942922;28;121622;-83
2022/08/01 11:35:12;;;;;;;;;;;;;;;23.53;44.16;101298.28;4948104;28;122789;-81
2022/08/01 11:37:38;;;;;;;;;;;;;;;23.50;44.38;101307.75;4951019;28;121600;-82
2022/08/01 11:40:41;;;;;;;;;;;;;;;23.45;43.91;101300.16;4907062;28;122844;-82
2022/08/01 11:43:13;;;;;;;;;;;;;;;23.43;43.99;101299.94;4899394;28;125088;-82
2022/08/01 11:45:50;;;;;;;;;;;;;;;23.41;44.70;101302.47;4903347;28;123173;-82
2022/08/01 11:48:19;;;;;;;;;;;;;;;23.43;44.90;101309.09;4921321;28;121960;-82
2022/08/01 11:51:20;;;;;;;;;;;;;;;23.46;44.26;101301.69;4859888;28;122153;-82
2022/08/01 11:53:46;;;;;;;;;;;;;;;23.47;43.82;101306.75;4857647;28;122065;-82
2022/08/01 11:56:12;;;;;;;;;;;;;;;23.41;42.74;101311.63;4849983;28;122879;-81
2022/08/01 11:58:37;;;;;;;;;;;;;;;23.33;42.85;101304.34;4863905;28;122106;-81
2022/08/01 12:01:03;;;;;;;;;;;;;;;23.36;44.17;101315.25;4844216;28;123004;-82
2022/08/01 12:03:30;;;;;;;;;;;;;;;23.43;44.52;101314.69;4846582;28;125405;-82
2022/08/01 12:05:57;;;;;;;;;;;;;;;23.48;43.60;101310.31;4812756;28;123001;-82
2022/08/01 12:08:25;;;;;;;;;;;;;;;23.51;43.87;101310.00;4842176;28;122309;-83
2022/08/01 12:10:50;;;;;;;;;;;;;;;23.60;44.54;101292.13;4849964;28;124685;-82
2022/08/01 12:13:17;;;;;;;;;;;;;;;23.67;44.48;101313.94;4847671;28;121789;-81
2022/08/01 12:15:45;;;;;;;;;;;;;;;23.69;43.35;101307.81;4833382;28;121815;-82
2022/08/01 12:18:10;;;;;;;;;;;;;;;23.66;44.14;101304.03;4841119;28;121773;-83
2022/08/01 12:20:37;;;;;;;;;;;;;;;23.65;44.13;101308.09;4860882;28;122066;-82
2022/08/01 12:23:05;;;;;;;;;;;;;;;23.67;44.36;101316.00;4862796;28;122003;-82
2022/08/01 12:25:31;;;;;;;;;;;;;;;23.69;44.09;101316.22;4911289;28;121946;-82
2022/08/01 12:28:04;;;;;;;;;;;;;;;23.66;42.90;101315.22;4946769;28;121812;-82
2022/08/01 12:30:36;;;;;;;;;;;;;;;23.63;43.77;101305.06;4945058;28;122161;-82
2022/08/01 12:33:02;;;;;;;;;;;;;;;23.63;43.19;101313.47;4961369;28;121424;-82
2022/08/01 12:35:29;;;;;;;;;;;;;;;23.63;42.96;101309.91;4947958;28;121974;-82